createdAt,value
2022-08-05T00:02:22.836Z,20.34
2022-08-05T00:07:58.970Z,20.22
2022-08-05T00:12:56.589Z,20.08
2022-08-05T00:17:59.698Z,19.94
2022-08-05T00:23:12.894Z,19.83
2022-08-05T00:28:16.571Z,19.73
2022-08-05T00:34:56.864Z,19.66
2022-08-05T00:38:55.984Z,19.62
2022-08-05T00:44:03.031Z,19.57
2022-08-05T00:49:06.402Z,19.50
2022-08-05T00:54:12.645Z,19.43
2022-08-05T00:59:15.395Z,19.37
2022-08-05T01:04:20.339Z,19.31
2022-08-05T01:09:30.402Z,19.25
2022-08-05T01:14:52.238Z,19.16
2022-08-05T01:20:02.720Z,19.08
2022-08-05T01:25:19.234Z,19.02
2022-08-05T01:30:34.156Z,18.95
2022-08-05T01:35:51.557Z,18.89
2022-08-05T01:41:01.317Z,18.82
2022-08-05T01:46:07.183Z,18.78
2022-08-05T01:51:20.793Z,18.73
2022-08-05T01:58:10.721Z,18.67
2022-08-05T02:01:52.732Z,18.59
2022-08-05T02:06:59.090Z,18.54
2022-08-05T02:12:33.397Z,18.47
2022-08-05T02:18:31.263Z,18.39
2022-08-05T02:23:12.020Z,18.29
2022-08-05T02:28:28.431Z,18.20
2022-08-05T02:33:38.870Z,18.12
2022-08-05T02:38:53.438Z,18.07
2022-08-05T02:44:02.291Z,18.01
2022-08-05T02:49:16.842Z,17.92
2022-08-05T02:54:36.414Z,17.86
2022-08-05T02:59:50.425Z,17.83
2022-08-05T03:04:57.512Z,17.82
2022-08-05T03:10:00.544Z,17.82
2022-08-05T03:15:09.208Z,17.84
2022-08-05T03:20:13.602Z,17.87
2022-08-05T03:25:33.788Z,17.91
2022-08-05T03:30:43.074Z,18.00
2022-08-05T03:35:47.022Z,18.12
2022-08-05T03:40:50.311Z,18.27
2022-08-05T03:45:57.347Z,18.41
2022-08-05T03:52:36.959Z,18.54
2022-08-05T03:56:44.269Z,18.67
2022-08-05T04:01:52.151Z,18.78
2022-08-05T04:06:56.138Z,18.91
2022-08-05T04:11:59.975Z,19.04
2022-08-05T04:17:03.093Z,19.19
2022-08-05T04:22:11.975Z,19.35
2022-08-05T04:27:15.405Z,19.53
2022-08-05T04:32:30.584Z,19.71
2022-08-05T04:38:02.896Z,19.92
2022-08-05T04:42:57.056Z,20.14
2022-08-05T04:48:10.214Z,20.36
2022-08-05T04:53:19.728Z,20.59
2022-08-05T04:58:23.776Z,20.79
2022-08-05T05:03:26.928Z,21.01
2022-08-05T05:08:44.902Z,21.25
2022-08-05T05:13:52.897Z,21.48
2022-08-05T05:19:18.757Z,21.71
2022-08-05T05:24:21.918Z,21.92
2022-08-05T05:29:24.725Z,22.17
2022-08-05T05:34:47.671Z,22.45
2022-08-05T05:39:55.308Z,22.80
2022-08-05T05:44:59.481Z,23.80
2022-08-05T05:50:04.194Z,24.67
2022-08-05T05:55:13.577Z,25.69
2022-08-05T06:00:20.625Z,26.29
2022-08-05T06:05:31.916Z,27.19
2022-08-05T06:10:37.426Z,28.17
2022-08-05T06:16:29.706Z,29.02
2022-08-05T06:21:18.435Z,29.58
2022-08-05T06:26:23.942Z,30.31
2022-08-05T06:31:30.473Z,31.17
2022-08-05T06:36:53.511Z,31.95
2022-08-05T06:41:58.974Z,32.57
2022-08-05T06:47:02.385Z,32.89
2022-08-05T06:52:05.987Z,33.32
2022-08-05T06:57:14.055Z,33.72
2022-08-05T07:02:32.288Z,34.23
2022-08-05T07:07:43.693Z,34.77
2022-08-05T07:13:05.532Z,34.94
2022-08-05T07:18:09.786Z,35.65
2022-08-05T07:23:26.349Z,36.01
2022-08-05T07:28:32.215Z,36.58
2022-08-05T07:33:36.984Z,36.94
2022-08-05T07:38:43.329Z,37.31
2022-08-05T07:43:47.699Z,37.46
2022-08-05T07:49:02.030Z,37.99
2022-08-05T07:54:10.117Z,38.39
2022-08-05T07:59:13.171Z,38.89
2022-08-05T08:04:17.097Z,39.07
2022-08-05T08:09:29.124Z,39.51
2022-08-05T08:14:32.227Z,40.38
2022-08-05T08:20:42.498Z,40.63
2022-08-05T08:25:02.726Z,40.99
2022-08-05T08:30:29.936Z,41.63
2022-08-05T08:35:34.972Z,41.68
2022-08-05T08:40:51.482Z,42.20
2022-08-05T08:45:56.703Z,42.52
2022-08-05T08:51:22.350Z,42.64
2022-08-05T08:56:27.124Z,42.22
2022-08-05T09:01:31.359Z,42.56
2022-08-05T09:06:36.279Z,43.22
2022-08-05T09:11:51.371Z,43.58
2022-08-05T09:16:56.708Z,43.89
2022-08-05T09:22:22.505Z,44.16
2022-08-05T09:28:04.817Z,44.18
2022-08-05T09:33:04.765Z,44.41
2022-08-05T09:38:12.199Z,44.04
2022-08-05T09:43:40.834Z,43.63
2022-08-05T09:49:07.058Z,43.92
2022-08-05T09:54:09.395Z,44.70
2022-08-05T09:59:16.865Z,44.82
2022-08-05T10:04:29.344Z,45.11
2022-08-05T10:09:44.941Z,44.60
2022-08-05T10:14:48.458Z,45.06
2022-08-05T10:20:03.059Z,45.49
2022-08-05T10:25:14.373Z,45.64
2022-08-05T10:31:20.186Z,45.79
2022-08-05T10:35:44.279Z,45.73
2022-08-05T10:40:58.015Z,45.61
2022-08-05T10:46:06.604Z,45.29
2022-08-05T10:51:21.879Z,45.10
2022-08-05T10:56:28.991Z,45.42
2022-08-05T11:01:54.619Z,45.24
2022-08-05T11:07:11.440Z,45.13
2022-08-05T11:12:26.517Z,45.21
2022-08-05T11:18:07.687Z,44.82
2022-08-05T11:22:59.190Z,45.01
2022-08-05T11:28:17.095Z,44.89
2022-08-05T11:33:43.973Z,44.48
2022-08-05T11:38:55.323Z,44.43
2022-08-05T11:44:12.750Z,44.41
2022-08-05T11:49:35.854Z,44.58
2022-08-05T11:54:41.462Z,44.22
2022-08-05T11:59:50.431Z,44.02
2022-08-05T12:04:59.700Z,44.39
2022-08-05T12:10:09.598Z,44.15
2022-08-05T12:15:38.399Z,44.41
2022-08-05T12:20:41.628Z,44.55
2022-08-05T12:25:53.607Z,44.34
2022-08-05T12:31:02.440Z,43.92
2022-08-05T12:36:09.527Z,43.50
2022-08-05T12:41:14.687Z,43.27
2022-08-05T12:46:29.122Z,43.41
2022-08-05T12:52:12.755Z,43.19
2022-08-05T12:57:01.348Z,42.40
2022-08-05T13:02:09.882Z,41.88
2022-08-05T13:07:17.389Z,41.71
2022-08-05T13:12:57.503Z,41.20
2022-08-05T13:18:02.127Z,41.00
2022-08-05T13:23:07.309Z,40.94
2022-08-05T13:28:10.482Z,41.04
2022-08-05T13:33:14.288Z,40.78
2022-08-05T13:38:42.030Z,40.03
2022-08-05T13:43:54.828Z,39.52
2022-08-05T13:49:01.005Z,39.19
2022-08-05T13:54:11.872Z,39.01
2022-08-05T13:59:19.989Z,38.58
2022-08-05T14:04:42.427Z,37.80
2022-08-05T14:09:53.650Z,36.58
2022-08-05T14:14:56.414Z,35.72
2022-08-05T14:20:04.502Z,35.27
2022-08-05T14:25:21.448Z,35.34
2022-08-05T14:30:26.577Z,35.44
2022-08-05T14:35:36.224Z,35.32
2022-08-05T14:40:40.525Z,35.46
2022-08-05T14:45:47.133Z,35.17
2022-08-05T14:50:50.335Z,34.79
2022-08-05T14:55:53.095Z,34.56
2022-08-05T15:00:58.879Z,34.37
2022-08-05T15:06:08.014Z,34.31
2022-08-05T15:11:16.524Z,34.39
2022-08-05T15:16:19.371Z,34.67
2022-08-05T15:21:22.240Z,34.87
2022-08-05T15:26:31.750Z,34.31
2022-08-05T15:31:35.228Z,33.80
2022-08-05T15:36:37.953Z,33.41
2022-08-05T15:41:56.408Z,33.10
2022-08-05T15:47:01.925Z,32.97
2022-08-05T15:52:16.554Z,32.83
2022-08-05T15:57:33.020Z,32.52
2022-08-05T16:02:38.362Z,32.36
2022-08-05T16:07:46.634Z,32.19
2022-08-05T16:12:52.011Z,31.89
2022-08-05T16:17:58.016Z,31.61
2022-08-05T16:23:01.153Z,31.47
2022-08-05T16:28:06.479Z,31.17
2022-08-05T16:33:12.699Z,30.98
2022-08-05T16:38:25.031Z,31.03
2022-08-05T16:43:31.795Z,31.13
2022-08-05T16:48:37.875Z,31.09
2022-08-05T16:54:04.809Z,31.00
2022-08-05T16:59:11.054Z,30.88
2022-08-05T17:04:18.648Z,30.74
2022-08-05T17:09:23.132Z,30.55
2022-08-05T17:14:37.137Z,30.27
2022-08-05T17:19:43.850Z,29.98
2022-08-05T17:24:58.235Z,29.76
2022-08-05T17:30:04.101Z,29.63
2022-08-05T17:35:07.499Z,29.51
2022-08-05T17:40:14.510Z,29.41
2022-08-05T17:45:21.134Z,29.28
2022-08-05T17:50:29.976Z,29.12
2022-08-05T17:55:37.416Z,28.94
2022-08-05T18:00:47.674Z,28.75
2022-08-05T18:05:54.371Z,28.56
2022-08-05T18:10:57.182Z,28.35
2022-08-05T18:15:59.929Z,28.17
2022-08-05T18:21:04.204Z,27.98
2022-08-05T18:26:18.035Z,27.79
2022-08-05T18:31:23.594Z,27.61
2022-08-05T18:36:28.144Z,27.43
2022-08-05T18:41:56.901Z,27.25
2022-08-05T18:46:54.607Z,27.06
2022-08-05T18:52:17.705Z,26.90
2022-08-05T18:57:50.137Z,26.74
2022-08-05T19:02:58.078Z,26.59
2022-08-05T19:08:12.258Z,26.44
2022-08-05T19:13:17.037Z,26.32
2022-08-05T19:18:22.256Z,26.18
2022-08-05T19:24:07.163Z,26.04
2022-08-05T19:28:48.531Z,25.88
2022-08-05T19:33:56.318Z,25.73
2022-08-05T19:39:00.821Z,25.59
2022-08-05T19:44:13.507Z,25.42
2022-08-05T19:49:17.862Z,25.28
2022-08-05T19:54:25.517Z,25.17
2022-08-05T19:59:56.268Z,25.07
2022-08-05T20:04:59.802Z,24.95
2022-08-05T20:10:11.711Z,24.83
2022-08-05T20:15:48.124Z,24.71
2022-08-05T20:20:46.085Z,24.61
2022-08-05T20:25:49.372Z,24.50
2022-08-05T20:30:55.222Z,24.41
2022-08-05T20:35:58.420Z,24.30
2022-08-05T20:41:04.627Z,24.18
2022-08-05T20:46:25.036Z,24.09
2022-08-05T20:51:28.304Z,24.06
2022-08-05T20:56:34.230Z,24.06
2022-08-05T21:01:45.823Z,24.08
2022-08-05T21:06:48.627Z,24.10
2022-08-05T21:12:09.066Z,24.14
2022-08-05T21:17:14.078Z,24.15
2022-08-05T21:22:18.428Z,24.15
2022-08-05T21:27:24.616Z,24.12
2022-08-05T21:32:29.263Z,24.10
2022-08-05T21:37:32.367Z,24.10
2022-08-05T21:42:44.764Z,24.09
2022-08-05T21:47:57.164Z,24.07
2022-08-05T21:53:08.359Z,24.00
2022-08-05T21:58:20.562Z,23.98
2022-08-05T22:03:48.984Z,24.00
2022-08-05T22:08:56.161Z,23.98
2022-08-05T22:14:32.516Z,23.84
2022-08-05T22:20:01.036Z,23.65
2022-08-05T22:25:04.566Z,23.53
2022-08-05T22:30:14.389Z,23.44
2022-08-05T22:35:20.107Z,23.37
2022-08-05T22:40:26.552Z,23.24
2022-08-05T22:45:33.559Z,23.09
2022-08-05T22:50:40.041Z,22.99
2022-08-05T22:55:57.157Z,22.93
2022-08-05T23:01:02.053Z,22.87
2022-08-05T23:06:04.849Z,22.81
2022-08-05T23:11:09.305Z,22.75
2022-08-05T23:16:12.837Z,22.73
2022-08-05T23:21:42.408Z,22.71
2022-08-05T23:26:46.064Z,22.69
2022-08-05T23:31:50.914Z,22.65
2022-08-05T23:36:55.393Z,22.58
2022-08-05T23:41:58.754Z,22.54
2022-08-05T23:47:02.481Z,22.53
2022-08-05T23:52:27.617Z,22.40
2022-08-05T23:57:31.182Z,22.26
